Time;durP1;ratioP1;P1;durP2;ratioP2;P2;SDS_P1;SDS_P2;PMS_P1;PMS_P2;Temp;Humidity;BMP_temperature;BMP_pressure;BME280_temperature;BME280_humidity;BME280_pressure;Samples;Min_cycle;Max_cycle;Signal;HPM_P1;HPM_P2
2022/03/08 00:01:51;;;;;;;5.73;5.27;;;18.30;34.30;;;;;;5120296;27;20216;-61
2022/03/08 00:04:17;;;;;;;6.33;5.73;;;18.30;34.30;;;;;;5119329;27;20232;-61
2022/03/08 00:06:43;;;;;;;5.40;4.90;;;18.30;34.50;;;;;;5125206;27;20220;-61
2022/03/08 00:09:08;;;;;;;5.00;4.60;;;18.30;34.50;;;;;;5121748;27;20224;-61
2022/03/08 00:11:34;;;;;;;6.13;5.50;;;18.20;34.30;;;;;;5119787;27;20211;-61
2022/03/08 00:14:00;;;;;;;6.17;5.67;;;18.30;34.50;;;;;;5118373;27;20308;-61
2022/03/08 00:16:26;;;;;;;5.50;5.00;;;18.30;34.50;;;;;;5126246;27;20242;-61
2022/03/08 00:18:51;;;;;;;4.97;4.60;;;18.20;34.40;;;;;;5123822;27;20238;-62
2022/03/08 00:21:18;;;;;;;5.10;4.70;;;18.20;34.50;;;;;;5121496;27;20241;-62
2022/03/08 00:23:45;;;;;;;5.20;4.70;;;18.20;34.40;;;;;;5117818;27;20248;-61
2022/03/08 00:26:10;;;;;;;5.00;4.63;;;18.20;34.50;;;;;;5118520;27;20460;-61
2022/03/08 00:28:36;;;;;;;5.93;5.43;;;18.20;34.50;;;;;;5117056;27;20455;-62
2022/03/08 00:31:01;;;;;;;4.43;4.13;;;18.20;34.40;;;;;;5111071;27;20241;-61
2022/03/08 00:33:27;;;;;;;5.23;4.73;;;18.20;34.50;;;;;;5119255;27;20224;-61
2022/03/08 00:35:53;;;;;;;5.60;5.10;;;18.20;34.50;;;;;;5125326;27;20220;-62
2022/03/08 00:38:19;;;;;;;5.20;4.80;;;18.20;34.50;;;;;;5121635;27;20227;-61
2022/03/08 00:40:46;;;;;;;6.80;5.20;;;18.20;34.50;;;;;;5119745;27;20286;-61
2022/03/08 00:43:11;;;;;;;4.20;3.77;;;18.20;34.50;;;;;;5117001;27;20418;-61
2022/03/08 00:45:37;;;;;;;5.37;4.97;;;18.20;34.50;;;;;;5120312;27;20420;-62
2022/03/08 00:48:03;;;;;;;4.87;4.57;;;18.20;34.60;;;;;;5121790;27;20219;-61
2022/03/08 00:50:30;;;;;;;4.37;4.07;;;18.20;34.50;;;;;;5124737;27;20472;-61
2022/03/08 00:52:58;;;;;;;4.60;4.10;;;18.20;34.60;;;;;;5116089;27;20319;-61
2022/03/08 00:55:28;;;;;;;4.53;4.23;;;18.20;34.60;;;;;;5114650;27;20446;-61
2022/03/08 00:57:54;;;;;;;4.47;4.10;;;18.20;34.50;;;;;;5119305;27;20418;-61
2022/03/08 01:00:24;;;;;;;4.73;4.27;;;18.20;34.60;;;;;;5117208;27;20414;-62
2022/03/08 01:02:49;;;;;;;4.50;4.10;;;18.20;34.70;;;;;;5116669;27;20415;-61
2022/03/08 01:05:15;;;;;;;4.23;3.93;;;18.20;34.60;;;;;;5113755;27;20426;-62
2022/03/08 01:07:42;;;;;;;4.60;4.20;;;18.20;34.60;;;;;;5118619;27;20579;-61
2022/03/08 01:10:11;;;;;;;4.20;3.90;;;18.20;34.60;;;;;;5119999;27;20350;-60
2022/03/08 01:12:36;;;;;;;4.73;4.33;;;18.20;34.70;;;;;;5117375;27;20462;-62
2022/03/08 01:15:04;;;;;;;4.90;4.50;;;18.20;34.60;;;;;;5118850;27;20454;-62
2022/03/08 01:17:30;;;;;;;4.43;4.13;;;18.20;34.70;;;;;;5119905;27;20224;-62
2022/03/08 01:19:56;;;;;;;5.07;4.57;;;18.20;34.60;;;;;;5117343;27;20459;-62
2022/03/08 01:22:22;;;;;;;4.60;4.23;;;18.20;34.60;;;;;;5117777;27;20684;-62
2022/03/08 01:24:47;;;;;;;3.80;3.60;;;18.20;34.60;;;;;;5121405;27;20296;-62
2022/03/08 01:27:13;;;;;;;4.10;3.80;;;18.20;34.70;;;;;;5116554;27;20884;-62
2022/03/08 01:29:39;;;;;;;4.43;4.10;;;18.20;34.60;;;;;;5125169;27;20220;-62
2022/03/08 01:32:05;;;;;;;3.50;3.30;;;18.20;34.70;;;;;;5117800;27;20281;-62
2022/03/08 01:34:31;;;;;;;3.97;3.60;;;18.20;34.60;;;;;;5116876;27;20457;-62
2022/03/08 01:36:56;;;;;;;4.30;3.90;;;18.20;34.60;;;;;;5120935;27;21207;-61
2022/03/08 01:39:23;;;;;;;4.10;3.80;;;18.20;34.60;;;;;;5116624;27;20218;-62
2022/03/08 01:41:48;;;;;;;4.20;3.90;;;18.20;34.60;;;;;;5123554;27;20227;-61
2022/03/08 01:44:14;;;;;;;4.47;4.13;;;18.20;34.60;;;;;;5115957;27;20423;-61
2022/03/08 01:46:40;;;;;;;3.63;3.43;;;18.20;34.70;;;;;;5120702;27;20311;-62
2022/03/08 01:49:06;;;;;;;3.37;3.17;;;18.20;34.70;;;;;;5118711;27;20527;-62
2022/03/08 01:51:34;;;;;;;3.70;3.40;;;18.20;34.60;;;;;;5120310;27;20656;-62
2022/03/08 01:53:59;;;;;;;3.60;3.30;;;18.20;34.70;;;;;;5117371;27;20431;-62
2022/03/08 01:56:25;;;;;;;3.70;3.40;;;18.20;34.70;;;;;;5115001;27;22028;-62
2022/03/08 01:58:51;;;;;;;3.40;3.20;;;18.20;34.70;;;;;;5122709;27;20223;-62
2022/03/08 02:01:16;;;;;;;2.97;2.77;;;18.20;34.60;;;;;;5118641;27;20219;-61
2022/03/08 02:03:42;;;;;;;3.20;2.90;;;18.20;34.60;;;;;;5117980;27;20211;-61
2022/03/08 02:06:08;;;;;;;3.40;3.20;;;18.20;35.50;;;;;;5121254;27;20219;-62
2022/03/08 02:08:33;;;;;;;3.63;3.40;;;18.20;34.60;;;;;;5120969;27;20214;-62
2022/03/08 02:10:59;;;;;;;3.60;3.30;;;18.20;34.60;;;;;;5113414;27;20225;-62
2022/03/08 02:13:26;;;;;;;3.83;3.53;;;18.20;34.60;;;;;;5116716;27;20243;-62
2022/03/08 02:15:52;;;;;;;3.73;3.53;;;18.20;34.60;;;;;;5120542;27;20208;-62
2022/03/08 02:18:18;;;;;;;3.77;3.57;;;18.20;34.60;;;;;;5117955;27;20810;-61
2022/03/08 02:20:45;;;;;;;3.67;3.40;;;18.20;34.60;;;;;;5119620;27;20495;-62
2022/03/08 02:23:11;;;;;;;3.17;2.77;;;18.20;34.60;;;;;;5117187;27;20571;-61
2022/03/08 02:25:37;;;;;;;2.60;2.40;;;18.10;34.50;;;;;;5120421;27;20809;-61
2022/03/08 02:28:03;;;;;;;3.50;3.20;;;18.20;34.60;;;;;;5118265;27;20942;-62
2022/03/08 02:30:29;;;;;;;3.90;3.30;;;18.20;34.50;;;;;;5117032;27;20207;-62
2022/03/08 02:32:55;;;;;;;3.40;3.20;;;18.20;34.60;;;;;;5121882;27;20778;-61
2022/03/08 02:35:25;;;;;;;3.07;2.87;;;18.20;34.50;;;;;;5117549;27;20212;-61
2022/03/08 02:41:12;;;;;;;3.10;2.90;;;18.20;34.50;;;;;;5125228;27;20411;-61
2022/03/08 02:43:38;;;;;;;2.47;2.37;;;18.20;34.50;;;;;;5116277;27;20427;-62
2022/03/08 02:46:04;;;;;;;2.63;2.53;;;18.20;34.50;;;;;;5121352;27;20211;-61
2022/03/08 02:48:30;;;;;;;3.00;2.80;;;18.10;34.40;;;;;;5118064;27;20302;-61
2022/03/08 02:50:56;;;;;;;3.57;3.37;;;18.20;34.50;;;;;;5116663;27;20301;-61
2022/03/08 02:53:22;;;;;;;3.27;3.07;;;18.20;34.50;;;;;;5116277;28;20979;-63
2022/03/08 02:55:48;;;;;;;3.17;2.90;;;18.20;34.50;;;;;;5116758;28;20453;-63
2022/03/08 02:58:14;;;;;;;3.10;2.90;;;18.20;34.50;;;;;;5115639;28;20441;-62
2022/03/08 03:00:39;;;;;;;3.27;2.80;;;18.10;34.40;;;;;;5118973;27;20668;-62
2022/03/08 03:03:06;;;;;;;3.20;3.00;;;18.10;34.40;;;;;;5125815;27;20217;-62
2022/03/08 03:05:33;;;;;;;3.00;2.80;;;18.20;34.40;;;;;;5123794;27;20263;-62
2022/03/08 03:07:59;;;;;;;3.10;2.90;;;18.10;34.40;;;;;;5119066;27;20423;-61
2022/03/08 03:10:24;;;;;;;3.00;2.80;;;18.20;34.40;;;;;;5120939;27;20439;-62
2022/03/08 03:12:52;;;;;;;2.60;2.50;;;18.10;34.30;;;;;;5126428;27;20928;-61
2022/03/08 03:15:18;;;;;;;3.10;2.90;;;18.10;34.30;;;;;;5120902;27;20221;-61
2022/03/08 03:17:45;;;;;;;2.80;2.60;;;18.10;34.40;;;;;;5122513;27;20413;-61
2022/03/08 03:20:13;;;;;;;2.93;2.73;;;18.20;34.40;;;;;;5120773;27;20479;-61
2022/03/08 03:22:38;;;;;;;3.10;2.80;;;18.20;34.40;;;;;;5121594;27;20452;-61
2022/03/08 03:25:05;;;;;;;3.20;3.00;;;18.10;34.30;;;;;;5125850;27;20452;-61
2022/03/08 03:27:31;;;;;;;3.20;3.00;;;18.10;34.30;;;;;;5123765;27;20622;-61
2022/03/08 03:29:56;;;;;;;3.40;2.80;;;18.20;34.40;;;;;;5125680;27;20507;-61
2022/03/08 03:32:25;;;;;;;2.87;2.67;;;18.10;34.30;;;;;;5115692;27;20246;-61
2022/03/08 03:34:51;;;;;;;2.70;2.50;;;18.10;34.30;;;;;;5123939;27;20216;-61
2022/03/08 03:37:18;;;;;;;2.67;2.47;;;18.10;34.70;;;;;;5122334;27;20438;-61
2022/03/08 03:39:44;;;;;;;2.67;2.53;;;18.10;34.30;;;;;;5123794;27;21016;-61
2022/03/08 03:42:09;;;;;;;2.93;2.60;;;18.10;34.30;;;;;;5119443;27;20448;-61
2022/03/08 03:44:35;;;;;;;3.57;3.27;;;18.10;34.30;;;;;;5126682;27;20716;-61
2022/03/08 03:47:01;;;;;;;2.50;2.37;;;18.10;34.30;;;;;;5120840;27;20546;-61
2022/03/08 03:49:26;;;;;;;2.93;2.73;;;18.10;34.40;;;;;;5121301;27;20291;-61
2022/03/08 03:51:53;;;;;;;2.90;2.70;;;18.10;34.30;;;;;;5124118;27;20521;-61
2022/03/08 03:54:19;;;;;;;3.00;2.80;;;18.10;34.30;;;;;;5119510;27;20570;-61
2022/03/08 03:56:45;;;;;;;2.73;2.53;;;18.10;34.30;;;;;;5114268;27;20826;-61
2022/03/08 03:59:11;;;;;;;2.50;2.30;;;18.10;34.30;;;;;;5120801;27;20822;-61
2022/03/08 04:01:37;;;;;;;2.80;2.60;;;18.10;34.30;;;;;;5117843;27;20411;-61
2022/03/08 04:04:02;;;;;;;2.97;2.77;;;18.10;34.30;;;;;;5117341;27;20244;-61
2022/03/08 04:06:28;;;;;;;2.60;2.43;;;18.10;34.40;;;;;;5121106;27;20680;-61
2022/03/08 04:08:54;;;;;;;2.50;2.40;;;18.10;34.30;;;;;;5124080;27;20264;-61
2022/03/08 04:11:19;;;;;;;2.60;2.40;;;18.10;34.30;;;;;;5122357;27;20219;-61
2022/03/08 04:13:45;;;;;;;2.90;2.70;;;18.10;34.30;;;;;;5122900;27;20240;-61
2022/03/08 04:16:11;;;;;;;2.50;2.30;;;18.10;34.30;;;;;;5124739;27;20224;-61
2022/03/08 04:18:37;;;;;;;2.70;2.50;;;18.10;34.30;;;;;;5123961;27;20304;-61
2022/03/08 04:21:03;;;;;;;2.67;2.47;;;18.10;34.30;;;;;;5117225;27;20534;-61
2022/03/08 04:23:29;;;;;;;2.93;2.70;;;18.10;34.30;;;;;;5119621;27;20423;-61
2022/03/08 04:25:54;;;;;;;2.60;2.40;;;18.10;34.30;;;;;;5118980;27;20228;-61
2022/03/08 04:28:20;;;;;;;2.50;2.30;;;18.20;34.30;;;;;;5123042;27;20223;-61
2022/03/08 04:30:45;;;;;;;3.33;3.07;;;18.10;34.30;;;;;;5122378;27;20227;-61
2022/03/08 04:33:11;;;;;;;2.97;2.77;;;18.20;34.40;;;;;;5127052;27;20222;-61
2022/03/08 04:35:37;;;;;;;3.00;2.80;;;18.10;34.20;;;;;;5121265;27;20199;-61
2022/03/08 04:38:03;;;;;;;2.30;2.20;;;18.20;34.30;;;;;;5117166;27;20791;-62
2022/03/08 04:40:29;;;;;;;2.50;2.30;;;18.20;34.30;;;;;;5120282;27;20661;-61
2022/03/08 04:42:55;;;;;;;2.57;2.37;;;18.20;34.30;;;;;;5123406;27;20427;-61
2022/03/08 04:45:21;;;;;;;2.47;2.37;;;18.20;34.30;;;;;;5119159;27;20423;-62
2022/03/08 04:47:47;;;;;;;3.03;2.83;;;18.10;34.20;;;;;;5122741;27;20220;-61
2022/03/08 04:50:16;;;;;;;2.43;2.23;;;18.10;34.20;;;;;;5120244;27;20217;-61
2022/03/08 04:52:44;;;;;;;2.43;2.23;;;18.10;34.20;;;;;;5118175;27;20231;-61
2022/03/08 04:55:10;;;;;;;2.60;2.40;;;18.20;34.40;;;;;;5116119;27;20419;-61
2022/03/08 04:57:36;;;;;;;2.87;2.70;;;18.20;34.30;;;;;;5118652;27;21010;-61
2022/03/08 05:00:05;;;;;;;2.73;2.53;;;18.20;34.20;;;;;;5119526;27;20461;-61
2022/03/08 05:02:31;;;;;;;2.23;2.13;;;18.20;34.20;;;;;;5122953;27;20627;-61
2022/03/08 05:04:56;;;;;;;2.47;2.27;;;18.20;34.30;;;;;;5121103;27;20487;-62
2022/03/08 05:07:22;;;;;;;2.87;2.67;;;18.20;34.20;;;;;;5117061;27;20220;-61
2022/03/08 05:09:48;;;;;;;2.33;2.23;;;18.20;34.20;;;;;;5120025;27;20216;-61
2022/03/08 05:12:13;;;;;;;2.70;2.50;;;18.20;34.20;;;;;;5115054;27;20928;-61
2022/03/08 05:14:39;;;;;;;2.70;2.50;;;18.20;34.20;;;;;;5121248;27;20216;-62
2022/03/08 05:17:05;;;;;;;2.97;2.77;;;18.20;34.20;;;;;;5119781;27;20244;-61
2022/03/08 05:19:30;;;;;;;2.50;2.30;;;18.20;34.10;;;;;;5122814;27;20712;-61
2022/03/08 05:21:56;;;;;;;2.67;2.47;;;18.20;34.80;;;;;;5120902;27;20298;-61
2022/03/08 05:24:21;;;;;;;2.30;2.10;;;18.20;34.10;;;;;;5122533;27;20574;-64
2022/03/08 05:26:47;;;;;;;2.60;2.40;;;18.20;34.10;;;;;;5118152;27;20223;-64
2022/03/08 05:29:13;;;;;;;2.50;2.40;;;18.20;34.10;;;;;;5117423;27;20216;-65
2022/03/08 05:31:38;;;;;;;2.60;2.50;;;18.20;34.00;;;;;;5119907;27;20672;-64
2022/03/08 05:34:04;;;;;;;2.60;2.50;;;18.30;34.00;;;;;;5120566;27;20698;-61
2022/03/08 05:36:30;;;;;;;2.50;2.30;;;18.30;33.90;;;;;;5121245;27;20216;-63
2022/03/08 05:38:55;;;;;;;2.43;2.23;;;18.30;33.80;;;;;;5122764;27;20228;-64
2022/03/08 05:41:21;;;;;;;2.63;2.43;;;18.30;33.80;;;;;;5119164;27;20281;-64
2022/03/08 05:43:47;;;;;;;2.80;2.60;;;18.40;33.90;;;;;;5119087;27;20211;-64
2022/03/08 05:46:12;;;;;;;3.17;2.97;;;18.40;33.80;;;;;;5121776;27;20214;-62
2022/03/08 05:48:38;;;;;;;3.30;3.10;;;18.40;33.80;;;;;;5120769;27;20252;-64
2022/03/08 05:51:05;;;;;;;2.57;2.37;;;18.40;33.70;;;;;;5117166;27;20224;-64
2022/03/08 05:53:31;;;;;;;2.80;2.63;;;18.40;33.80;;;;;;5120635;27;20254;-62
2022/03/08 05:55:57;;;;;;;2.50;2.30;;;18.40;33.80;;;;;;5111802;27;20407;-62
2022/03/08 05:58:22;;;;;;;2.43;2.07;;;18.40;33.70;;;;;;5118046;27;20215;-65
2022/03/08 06:00:48;;;;;;;2.60;2.40;;;18.40;33.80;;;;;;5122580;27;20233;-65
2022/03/08 06:03:14;;;;;;;2.60;2.40;;;18.40;33.80;;;;;;5122305;27;20219;-66
2022/03/08 06:05:39;;;;;;;2.80;2.60;;;18.40;33.70;;;;;;5119103;27;20277;-65
2022/03/08 06:08:05;;;;;;;2.60;2.40;;;18.40;33.80;;;;;;5120306;27;20219;-65
2022/03/08 06:10:32;;;;;;;2.50;2.40;;;18.40;34.60;;;;;;5120665;27;20291;-63
2022/03/08 06:12:57;;;;;;;2.53;2.33;;;18.40;33.70;;;;;;5117040;27;20228;-64
2022/03/08 06:15:23;;;;;;;2.90;2.70;;;18.40;33.70;;;;;;5116834;27;20782;-65
2022/03/08 06:17:49;;;;;;;2.40;2.30;;;18.40;33.70;;;;;;5119845;27;20591;-64
2022/03/08 06:20:14;;;;;;;2.67;2.47;;;18.40;33.70;;;;;;5117438;27;20227;-63
2022/03/08 06:22:40;;;;;;;2.40;2.30;;;18.40;33.80;;;;;;5119687;27;20227;-63
2022/03/08 06:25:07;;;;;;;3.07;2.87;;;18.40;33.70;;;;;;5120461;27;20204;-64
2022/03/08 06:27:33;;;;;;;2.77;2.23;;;18.40;33.70;;;;;;5118857;27;20442;-63
2022/03/08 06:29:58;;;;;;;3.30;2.47;;;18.40;33.70;;;;;;5119161;27;20450;-63
2022/03/08 06:32:24;;;;;;;3.00;2.70;;;18.40;33.70;;;;;;5116966;27;20229;-63
2022/03/08 06:34:53;;;;;;;4.07;2.90;;;18.40;33.70;;;;;;5117686;27;20290;-63
2022/03/08 06:37:18;;;;;;;2.53;2.33;;;18.40;33.80;;;;;;5120673;27;20204;-63
2022/03/08 06:39:45;;;;;;;2.50;2.40;;;18.40;33.70;;;;;;5123335;27;20421;-63
2022/03/08 06:42:11;;;;;;;3.40;3.10;;;18.40;33.70;;;;;;5115955;27;20254;-63
2022/03/08 06:44:39;;;;;;;2.67;2.47;;;18.40;33.70;;;;;;5124525;27;20971;-63
2022/03/08 06:47:06;;;;;;;3.10;2.80;;;18.40;33.70;;;;;;5123758;27;20239;-62
2022/03/08 06:49:32;;;;;;;3.10;2.80;;;18.40;33.70;;;;;;5125714;27;20459;-62
2022/03/08 06:51:58;;;;;;;3.13;2.93;;;18.40;33.70;;;;;;5120922;27;20426;-61
2022/03/08 06:54:24;;;;;;;3.10;2.90;;;18.40;33.70;;;;;;5122630;27;20430;-62
2022/03/08 06:56:49;;;;;;;3.10;2.90;;;18.40;33.70;;;;;;5126519;27;20292;-61
2022/03/08 06:59:15;;;;;;;3.60;3.23;;;18.40;33.70;;;;;;5122900;27;20212;-61
2022/03/08 07:01:41;;;;;;;2.97;2.77;;;18.40;33.70;;;;;;5119813;27;20677;-61
2022/03/08 07:04:06;;;;;;;3.13;2.93;;;18.40;34.50;;;;;;5127803;27;20218;-61
2022/03/08 07:06:32;;;;;;;2.93;2.73;;;18.40;33.70;;;;;;5123687;27;20221;-61
2022/03/08 07:08:58;;;;;;;4.33;2.90;;;18.40;33.70;;;;;;5118167;27;20220;-61
2022/03/08 07:11:24;;;;;;;4.20;3.10;;;18.40;33.70;;;;;;5119667;27;20219;-61
2022/03/08 07:13:50;;;;;;;3.00;2.70;;;18.40;33.80;;;;;;5121290;27;20216;-60
2022/03/08 07:16:16;;;;;;;7.47;3.33;;;18.40;33.70;;;;;;5123332;27;20448;-62
2022/03/08 07:18:41;;;;;;;3.17;2.70;;;18.40;33.70;;;;;;5124934;27;20243;-63
2022/03/08 07:21:07;;;;;;;3.03;2.43;;;18.50;33.70;;;;;;5127762;27;20216;-62
2022/03/08 07:23:33;;;;;;;3.37;3.17;;;18.50;33.60;;;;;;5119628;27;20662;-62
2022/03/08 07:25:59;;;;;;;3.73;3.10;;;18.50;33.60;;;;;;5119107;27;20237;-62
2022/03/08 07:28:24;;;;;;;2.80;2.60;;;18.50;33.60;;;;;;5128921;27;20835;-62
2022/03/08 07:30:50;;;;;;;3.03;2.83;;;18.50;33.60;;;;;;5122265;27;20211;-62
2022/03/08 07:33:16;;;;;;;3.40;3.10;;;18.50;33.60;;;;;;5127225;27;20239;-62
2022/03/08 07:35:41;;;;;;;2.77;2.57;;;18.50;33.60;;;;;;5122486;27;20259;-61
2022/03/08 07:38:08;;;;;;;2.70;2.50;;;18.40;33.60;;;;;;5121953;27;20266;-61
2022/03/08 07:40:34;;;;;;;2.63;2.43;;;18.40;33.60;;;;;;5126678;27;20215;-61
2022/03/08 07:43:01;;;;;;;2.73;2.53;;;18.40;33.60;;;;;;5123563;27;20515;-61
2022/03/08 07:45:27;;;;;;;3.27;2.97;;;18.40;33.60;;;;;;5120611;27;20224;-61
2022/03/08 07:47:53;;;;;;;3.07;2.77;;;18.40;33.60;;;;;;5122959;27;20455;-62
2022/03/08 07:50:18;;;;;;;2.80;2.40;;;18.40;33.70;;;;;;5122837;27;20288;-62
2022/03/08 07:52:44;;;;;;;2.93;2.70;;;18.40;33.60;;;;;;5124087;27;20234;-61
2022/03/08 07:55:10;;;;;;;2.70;2.50;;;18.40;33.60;;;;;;5123533;27;20212;-61
2022/03/08 07:57:35;;;;;;;2.90;2.57;;;18.40;33.60;;;;;;5121658;27;20216;-61
2022/03/08 08:00:04;;;;;;;2.67;2.57;;;18.40;33.60;;;;;;5121115;27;20657;-61
2022/03/08 08:02:29;;;;;;;3.20;2.90;;;18.40;33.60;;;;;;5102509;27;20211;-62
2022/03/08 08:04:56;;;;;;;6.40;4.57;;;18.40;33.60;;;;;;5115588;27;20422;-62
2022/03/08 08:07:22;;;;;;;3.10;2.90;;;18.40;33.60;;;;;;5123251;27;20212;-62
2022/03/08 08:09:47;;;;;;;2.80;2.60;;;18.40;33.70;;;;;;5123653;27;20785;-62
2022/03/08 08:12:13;;;;;;;8.63;3.23;;;18.40;33.60;;;;;;5104258;27;20226;-66
2022/03/08 08:14:39;;;;;;;3.93;3.63;;;18.40;33.60;;;;;;5126950;27;20219;-65
2022/03/08 08:17:05;;;;;;;3.83;2.90;;;18.40;33.60;;;;;;5121351;27;20242;-63
2022/03/08 08:19:31;;;;;;;2.57;2.37;;;18.40;33.60;;;;;;5122880;27;20964;-63
2022/03/08 08:21:56;;;;;;;3.60;2.80;;;18.40;33.60;;;;;;5118772;27;20235;-63
2022/03/08 08:24:23;;;;;;;4.83;2.87;;;18.40;33.60;;;;;;5115433;27;20246;-62
2022/03/08 08:26:48;;;;;;;3.83;2.80;;;18.40;33.60;;;;;;5119931;27;20228;-61
2022/03/08 08:29:14;;;;;;;2.60;2.27;;;18.50;33.60;;;;;;5120396;27;20437;-62
2022/03/08 08:31:40;;;;;;;10.40;3.13;;;18.50;33.50;;;;;;5120063;27;20234;-61
2022/03/08 08:34:05;;;;;;;3.87;2.30;;;18.50;33.60;;;;;;5125535;27;20243;-61
2022/03/08 08:36:31;;;;;;;3.30;2.13;;;18.50;33.60;;;;;;5120289;27;20228;-61
2022/03/08 08:38:57;;;;;;;2.50;2.30;;;18.50;33.50;;;;;;5115508;27;20572;-61
2022/03/08 08:41:22;;;;;;;3.53;3.23;;;18.50;33.50;;;;;;5120035;27;20679;-61
2022/03/08 08:43:48;;;;;;;3.33;2.67;;;18.50;33.50;;;;;;5124707;27;20219;-61
2022/03/08 08:46:14;;;;;;;3.70;2.60;;;18.50;33.60;;;;;;5115156;27;20668;-61
2022/03/08 08:48:39;;;;;;;2.90;2.70;;;18.50;33.50;;;;;;5127449;27;20215;-63
2022/03/08 08:51:05;;;;;;;2.70;2.30;;;18.50;33.50;;;;;;5119513;27;20239;-62
2022/03/08 08:53:30;;;;;;;3.80;2.40;;;18.50;33.50;;;;;;5129406;27;20725;-61
2022/03/08 08:55:56;;;;;;;4.30;2.80;;;18.50;33.50;;;;;;5118278;27;20238;-61
2022/03/08 08:58:22;;;;;;;2.60;2.40;;;18.50;33.60;;;;;;5120631;27;20687;-61
2022/03/08 09:00:47;;;;;;;3.90;2.90;;;18.50;33.50;;;;;;5119046;27;20215;-61
2022/03/08 09:03:16;;;;;;;6.60;2.90;;;18.50;33.50;;;;;;5130672;27;20232;-61
2022/03/08 09:05:45;;;;;;;2.57;2.37;;;18.50;33.50;;;;;;5121472;27;20215;-62
2022/03/08 09:08:11;;;;;;;2.00;1.90;;;18.50;33.50;;;;;;5118699;27;20471;-61
2022/03/08 09:10:37;;;;;;;2.87;2.67;;;18.50;33.50;;;;;;5116047;27;20534;-61
2022/03/08 09:13:05;;;;;;;5.83;2.50;;;18.50;33.50;;;;;;5120336;27;20546;-61
2022/03/08 09:15:31;;;;;;;2.60;2.40;;;18.50;33.60;;;;;;5118367;27;20216;-62
2022/03/08 09:17:57;;;;;;;4.40;2.30;;;18.50;33.60;;;;;;5119756;27;20486;-62
2022/03/08 09:20:25;;;;;;;5.60;2.30;;;18.50;33.60;;;;;;5116361;27;20459;-61
2022/03/08 09:22:54;;;;;;;2.30;2.10;;;18.50;33.60;;;;;;5119726;27;20214;-61
2022/03/08 09:25:20;;;;;;;2.50;2.30;;;18.50;33.60;;;;;;5129758;27;20431;-61
2022/03/08 09:27:45;;;;;;;4.30;2.43;;;18.50;33.60;;;;;;5122468;27;20414;-61
2022/03/08 09:30:12;;;;;;;2.50;2.30;;;18.50;33.60;;;;;;5117687;27;20580;-62
2022/03/08 09:32:38;;;;;;;2.47;2.10;;;18.50;33.70;;;;;;5120148;27;20307;-64
2022/03/08 09:35:04;;;;;;;2.70;2.50;;;18.50;33.70;;;;;;5119859;27;20538;-63
2022/03/08 09:37:30;;;;;;;2.37;2.27;;;18.50;33.70;;;;;;5123653;27;20224;-62
2022/03/08 09:39:56;;;;;;;3.97;2.93;;;18.50;33.80;;;;;;5127475;27;20834;-62
2022/03/08 09:42:22;;;;;;;2.20;2.00;;;18.50;33.80;;;;;;5120870;27;20273;-62
2022/03/08 09:44:48;;;;;;;4.17;2.20;;;18.50;33.80;;;;;;5122164;27;20924;-63
2022/03/08 09:47:18;;;;;;;2.90;2.70;;;18.50;33.90;;;;;;5122101;27;20612;-63
2022/03/08 09:49:44;;;;;;;2.33;2.13;;;18.50;33.90;;;;;;5118350;27;20464;-62
2022/03/08 09:52:10;;;;;;;2.60;1.90;;;18.50;33.90;;;;;;5119139;27;20411;-62
2022/03/08 09:54:36;;;;;;;2.30;2.10;;;18.50;33.90;;;;;;5117510;27;20232;-62
2022/03/08 09:57:18;;;;;;;2.03;1.93;;;18.50;34.00;;;;;;5118713;27;20444;-62
2022/03/08 09:59:45;;;;;;;3.70;2.10;;;18.50;34.00;;;;;;5117200;27;20303;-62
2022/03/08 10:02:14;;;;;;;5.77;2.37;;;18.50;34.70;;;;;;5119399;27;22229;-62
2022/03/08 10:04:40;;;;;;;4.00;2.07;;;18.50;34.00;;;;;;5123865;27;20461;-62
2022/03/08 10:07:11;;;;;;;2.20;2.00;;;18.50;34.00;;;;;;5119694;27;20766;-62
2022/03/08 10:09:37;;;;;;;3.40;2.10;;;18.40;33.90;;;;;;5118101;27;20432;-64
2022/03/08 10:12:14;;;;;;;2.30;2.17;;;18.40;33.90;;;;;;5120026;27;20461;-63
2022/03/08 10:14:40;;;;;;;2.37;2.17;;;18.40;33.90;;;;;;5117561;27;20491;-62
2022/03/08 10:17:07;;;;;;;2.50;2.07;;;18.40;34.00;;;;;;5119150;27;20471;-61
2022/03/08 10:20:02;;;;;;;2.17;1.90;;;18.40;34.00;;;;;;5120690;27;20315;-62
2022/03/08 10:22:34;;;;;;;2.07;1.70;;;18.40;34.80;;;;;;5114307;27;20436;-61
2022/03/08 10:25:17;;;;;;;2.50;2.30;;;18.40;34.00;;;;;;5128841;27;20571;-61
2022/03/08 10:27:51;;;;;;;3.00;2.50;;;18.40;34.00;;;;;;5123206;27;20407;-61
2022/03/08 10:30:17;;;;;;;4.77;1.90;;;18.40;34.70;;;;;;5123507;27;20494;-61
2022/03/08 10:32:45;;;;;;;2.10;1.67;;;18.40;34.00;;;;;;5130252;27;20560;-61
2022/03/08 10:35:11;;;;;;;2.90;1.93;;;18.40;33.90;;;;;;5125489;27;20234;-61
2022/03/08 10:37:38;;;;;;;3.40;2.10;;;18.40;33.90;;;;;;5120633;27;20455;-61
2022/03/08 10:40:09;;;;;;;2.90;1.90;;;18.40;33.90;;;;;;5123884;27;20268;-60
2022/03/08 10:42:39;;;;;;;3.93;2.17;;;18.40;33.90;;;;;;5128334;27;20470;-61
2022/03/08 10:45:12;;;;;;;2.03;1.83;;;18.40;34.70;;;;;;5119634;27;21056;-61
2022/03/08 10:47:50;;;;;;;2.27;1.77;;;18.40;33.80;;;;;;5128335;27;20436;-61
2022/03/08 10:50:18;;;;;;;2.23;1.80;;;18.40;33.80;;;;;;5129286;27;21732;-61
2022/03/08 10:52:46;;;;;;;2.40;2.20;;;18.40;33.80;;;;;;5121243;27;20454;-61
2022/03/08 10:55:24;;;;;;;2.20;2.00;;;18.40;33.80;;;;;;5118894;27;20918;-61
2022/03/08 10:57:54;;;;;;;5.40;2.00;;;18.40;33.80;;;;;;5124994;27;20440;-61
2022/03/08 11:00:31;;;;;;;2.83;1.97;;;18.40;33.70;;;;;;5126287;27;20942;-62
2022/03/08 11:03:00;;;;;;;2.80;2.00;;;18.40;33.70;;;;;;5122538;27;20437;-62
2022/03/08 11:05:30;;;;;;;2.30;2.10;;;18.30;33.60;;;;;;5126620;27;20835;-61
2022/03/08 11:07:57;;;;;;;6.23;2.00;;;18.30;33.60;;;;;;5126120;27;20434;-62
2022/03/08 11:10:24;;;;;;;3.97;1.77;;;18.40;33.60;;;;;;5121071;27;20438;-61
2022/03/08 11:12:50;;;;;;;2.10;2.00;;;18.40;33.60;;;;;;5124163;27;20463;-61
2022/03/08 11:15:17;;;;;;;2.00;1.80;;;18.40;33.50;;;;;;5124601;27;20414;-62
2022/03/08 11:17:47;;;;;;;2.40;2.20;;;18.40;33.50;;;;;;5123552;27;21214;-62
2022/03/08 11:20:16;;;;;;;2.40;1.93;;;18.30;33.30;;;;;;5119043;27;20422;-62
2022/03/08 11:22:43;;;;;;;3.20;1.97;;;18.30;33.30;;;;;;5129265;27;20431;-62
2022/03/08 11:25:13;;;;;;;1.83;1.73;;;18.40;33.40;;;;;;5125827;27;20422;-62
2022/03/08 11:27:40;;;;;;;2.73;1.63;;;18.30;33.20;;;;;;5123189;27;20494;-62
2022/03/08 11:30:08;;;;;;;4.13;2.23;;;18.30;33.10;;;;;;5119955;27;20426;-62
2022/03/08 11:33:07;;;;;;;7.10;2.60;;;18.40;33.00;;;;;;5122284;27;20476;-61
2022/03/08 11:35:48;;;;;;;5.53;2.13;;;18.40;32.60;;;;;;5115431;27;20428;-62
2022/03/08 11:38:15;;;;;;;2.90;2.20;;;18.40;32.20;;;;;;5123230;27;20418;-61
2022/03/08 11:40:54;;;;;;;5.10;2.27;;;18.50;32.30;;;;;;5122597;27;20610;-61
2022/03/08 11:43:34;;;;;;;2.10;1.60;;;18.50;32.40;;;;;;5121250;27;20872;-61
2022/03/08 11:46:29;;;;;;;1.57;1.47;;;18.50;32.30;;;;;;5121661;27;20527;-61
2022/03/08 11:48:58;;;;;;;2.03;1.90;;;18.50;33.10;;;;;;5103069;27;20467;-61
2022/03/08 11:51:25;;;;;;;4.27;2.13;;;18.50;32.30;;;;;;5122805;27;20520;-61
2022/03/08 11:54:05;;;;;;;2.93;1.70;;;18.50;32.40;;;;;;5121196;27;20439;-62
2022/03/08 11:56:44;;;;;;;3.00;1.90;;;18.50;32.30;;;;;;5119324;27;20419;-61
2022/03/08 11:59:10;;;;;;;1.63;1.53;;;18.50;32.40;;;;;;5119019;27;20856;-61
2022/03/08 12:01:37;;;;;;;1.67;1.57;;;18.50;32.30;;;;;;5123248;27;20415;-61
2022/03/08 12:04:12;;;;;;;3.37;1.73;;;18.50;32.30;;;;;;5120978;27;20494;-61
2022/03/08 12:06:39;;;;;;;2.30;1.77;;;18.50;32.30;;;;;;5121762;27;20450;-61
2022/03/08 12:09:11;;;;;;;2.00;1.90;;;18.60;32.50;;;;;;5118730;27;20483;-61
2022/03/08 12:12:03;;;;;;;1.60;1.50;;;18.60;32.50;;;;;;5120972;27;20986;-61
2022/03/08 12:14:31;;;;;;;2.80;2.60;;;18.60;33.20;;;;;;5148660;27;20439;-61
2022/03/08 12:17:07;;;;;;;1.63;1.53;;;18.60;32.40;;;;;;5145215;27;20446;-61
2022/03/08 12:19:36;;;;;;;1.70;1.60;;;18.60;32.50;;;;;;5143822;27;20491;-61
2022/03/08 12:22:07;;;;;;;2.33;2.10;;;18.60;32.40;;;;;;5143758;27;20425;-61
2022/03/08 12:24:39;;;;;;;1.67;1.57;;;18.60;32.40;;;;;;5142048;27;20476;-62
2022/03/08 12:27:07;;;;;;;2.00;1.80;;;18.60;32.40;;;;;;5143033;27;20428;-61
2022/03/08 12:29:50;;;;;;;1.60;1.50;;;18.60;32.40;;;;;;5144422;27;20429;-61
2022/03/08 12:32:28;;;;;;;2.23;1.60;;;18.60;32.40;;;;;;5141381;27;20451;-62
2022/03/08 12:34:56;;;;;;;3.13;1.90;;;18.60;32.50;;;;;;5139931;27;20953;-62
2022/03/08 12:37:28;;;;;;;4.93;2.67;;;18.60;33.20;;;;;;5145106;27;20437;-62
2022/03/08 12:40:04;;;;;;;1.70;1.60;;;18.60;31.90;;;;;;5141870;27;20444;-62
2022/03/08 12:42:43;;;;;;;1.63;1.53;;;18.60;31.90;;;;;;5143198;27;20478;-61
2022/03/08 12:45:12;;;;;;;2.67;2.10;;;18.60;32.30;;;;;;5140879;27;20467;-60
2022/03/08 12:47:47;;;;;;;3.83;1.73;;;18.60;32.50;;;;;;5143959;27;20461;-60
2022/03/08 12:50:19;;;;;;;3.40;1.67;;;18.60;32.40;;;;;;5141545;27;20439;-60
2022/03/08 12:52:48;;;;;;;2.80;1.80;;;18.50;32.30;;;;;;5148521;27;20418;-61